createdAt,value
2023-04-24T00:02:12.632Z,1.75
2023-04-24T00:04:42.622Z,1.88
2023-04-24T00:07:10.918Z,1.67
2023-04-24T00:09:39.242Z,1.95
2023-04-24T00:12:07.477Z,2.03
2023-04-24T00:14:38.335Z,4.32
2023-04-24T00:17:08.555Z,2.05
2023-04-24T00:19:36.894Z,1.30
2023-04-24T00:22:07.871Z,1.98
2023-04-24T00:24:36.092Z,1.80
2023-04-24T00:27:04.500Z,0.82
2023-04-24T00:29:32.937Z,1.80
2023-04-24T00:32:02.765Z,3.10
2023-04-24T00:34:31.293Z,1.58
2023-04-24T00:36:59.653Z,1.35
2023-04-24T00:39:28.026Z,1.20
2023-04-24T00:41:56.540Z,1.48
2023-04-24T00:44:25.330Z,2.15
2023-04-24T00:46:55.920Z,1.15
2023-04-24T00:49:27.447Z,1.30
2023-04-24T00:51:58.278Z,1.98
2023-04-24T00:54:26.541Z,2.20
2023-04-24T00:56:55.590Z,1.50
2023-04-24T00:59:24.021Z,1.42
2023-04-24T01:02:00.999Z,2.63
2023-04-24T01:04:31.415Z,0.93
2023-04-24T01:07:02.585Z,1.60
2023-04-24T01:09:33.107Z,1.20
2023-04-24T01:12:02.078Z,1.83
2023-04-24T01:14:31.097Z,1.70
2023-04-24T01:17:00.240Z,4.28
2023-04-24T01:19:37.189Z,2.00
2023-04-24T01:22:12.004Z,1.52
2023-04-24T01:24:42.190Z,4.00
2023-04-24T01:27:12.800Z,2.35
2023-04-24T01:29:43.161Z,2.00
2023-04-24T01:32:25.800Z,2.65
2023-04-24T01:34:54.245Z,1.85
2023-04-24T01:37:24.569Z,2.13
2023-04-24T01:39:53.195Z,2.92
2023-04-24T01:42:21.569Z,1.60
2023-04-24T01:44:56.183Z,1.35
2023-04-24T01:47:24.744Z,2.67
2023-04-24T01:49:53.513Z,1.75
2023-04-24T01:52:28.288Z,2.33
2023-04-24T01:54:57.059Z,1.25
2023-04-24T01:57:26.099Z,2.00
2023-04-24T01:59:54.636Z,1.92
2023-04-24T02:02:31.765Z,2.58
2023-04-24T02:05:00.374Z,2.20
2023-04-24T02:07:30.202Z,1.90
2023-04-24T02:09:58.446Z,2.20
2023-04-24T02:12:26.964Z,2.92
2023-04-24T02:14:55.092Z,2.40
2023-04-24T02:17:24.899Z,2.50
2023-04-24T02:20:00.493Z,1.60
2023-04-24T02:22:30.436Z,2.83
2023-04-24T02:24:58.603Z,2.58
2023-04-24T02:27:26.926Z,2.20
2023-04-24T02:29:58.363Z,3.35
2023-04-24T02:32:26.672Z,2.58
2023-04-24T02:34:55.289Z,2.58
2023-04-24T02:37:26.392Z,1.98
2023-04-24T02:39:56.782Z,2.53
2023-04-24T02:42:26.652Z,2.72
2023-04-24T02:44:55.051Z,2.63
2023-04-24T02:47:25.558Z,2.42
2023-04-24T02:49:55.905Z,2.90
2023-04-24T02:52:24.366Z,1.58
2023-04-24T02:54:52.974Z,1.83
2023-04-24T02:57:23.040Z,1.52
2023-04-24T02:59:51.634Z,1.60
2023-04-24T03:02:22.171Z,2.60
2023-04-24T03:04:54.878Z,3.30
2023-04-24T03:07:25.192Z,1.65
2023-04-24T03:09:53.595Z,2.42
2023-04-24T03:12:38.860Z,2.10
2023-04-24T03:15:08.589Z,2.28
2023-04-24T03:17:38.216Z,1.40
2023-04-24T03:20:11.200Z,1.58
2023-04-24T03:22:42.516Z,2.07
2023-04-24T03:25:15.918Z,2.35
2023-04-24T03:27:57.291Z,1.45
2023-04-24T03:30:25.871Z,1.88
2023-04-24T03:32:54.345Z,1.63
2023-04-24T03:35:23.556Z,2.17
2023-04-24T03:37:51.851Z,1.95
2023-04-24T03:40:20.441Z,1.20
2023-04-24T03:42:50.408Z,1.67
2023-04-24T03:45:18.966Z,1.55
2023-04-24T03:47:49.403Z,1.35
2023-04-24T03:50:19.497Z,1.70
2023-04-24T03:52:48.125Z,1.77
2023-04-24T03:55:16.583Z,1.70
2023-04-24T03:57:45.418Z,2.75
2023-04-24T04:00:16.949Z,2.40
2023-04-24T04:02:48.037Z,1.90
2023-04-24T04:05:28.850Z,2.33
2023-04-24T04:07:57.375Z,1.67
2023-04-24T04:10:27.672Z,1.67
2023-04-24T04:12:56.204Z,2.50
2023-04-24T04:15:29.364Z,2.42
2023-04-24T04:17:59.038Z,2.17
2023-04-24T04:20:30.124Z,1.90
2023-04-24T04:23:03.500Z,2.17
2023-04-24T04:25:37.300Z,2.50
2023-04-24T04:30:36.596Z,4.18
2023-04-24T04:33:13.409Z,3.03
2023-04-24T04:35:42.433Z,2.28
2023-04-24T04:38:13.506Z,2.58
2023-04-24T04:40:41.986Z,1.70
2023-04-24T04:43:19.512Z,1.95
2023-04-24T04:45:55.509Z,2.72
2023-04-24T04:48:38.726Z,1.90
2023-04-24T04:51:14.600Z,2.00
2023-04-24T04:53:50.776Z,1.88
2023-04-24T04:56:23.596Z,3.65
2023-04-24T04:58:52.149Z,5.32
2023-04-24T05:01:24.266Z,2.90
2023-04-24T05:03:56.904Z,2.38
2023-04-24T05:06:28.693Z,1.33
2023-04-24T05:08:58.459Z,2.83
2023-04-24T05:11:27.361Z,3.58
2023-04-24T05:13:57.581Z,4.97
2023-04-24T05:16:27.751Z,1.77
2023-04-24T05:18:56.130Z,3.78
2023-04-24T05:21:24.764Z,2.05
2023-04-24T05:23:56.921Z,3.33
2023-04-24T05:26:27.860Z,3.03
2023-04-24T05:28:58.201Z,2.47
2023-04-24T05:31:31.288Z,3.28
2023-04-24T05:34:03.505Z,1.65
2023-04-24T05:36:33.825Z,2.33
2023-04-24T05:39:12.287Z,2.80
2023-04-24T05:41:43.494Z,3.40
2023-04-24T05:44:12.123Z,2.03
2023-04-24T05:46:42.005Z,2.35
2023-04-24T05:49:10.654Z,2.30
2023-04-24T05:51:42.479Z,1.80
2023-04-24T05:54:13.260Z,2.25
2023-04-24T05:56:43.226Z,2.00
2023-04-24T05:59:11.705Z,4.22
2023-04-24T06:01:41.791Z,3.58
2023-04-24T06:04:10.278Z,1.90
2023-04-24T06:06:38.672Z,1.85
2023-04-24T06:09:07.866Z,2.25
2023-04-24T06:11:36.147Z,3.33
2023-04-24T06:14:04.501Z,2.30
2023-04-24T06:16:35.787Z,2.47
2023-04-24T06:19:06.176Z,2.30
2023-04-24T06:21:35.867Z,2.17
2023-04-24T06:24:04.838Z,2.33
2023-04-24T06:26:33.921Z,2.13
2023-04-24T06:29:02.248Z,2.35
2023-04-24T06:31:31.025Z,2.22
2023-04-24T06:33:59.491Z,3.13
2023-04-24T06:36:29.494Z,2.17
2023-04-24T06:38:59.801Z,2.50
2023-04-24T06:41:31.315Z,2.47
2023-04-24T06:43:59.765Z,2.03
2023-04-24T06:46:46.200Z,2.50
2023-04-24T06:49:17.306Z,3.20
2023-04-24T06:51:47.416Z,3.60
2023-04-24T06:54:15.748Z,3.15
2023-04-24T06:56:44.200Z,3.33
2023-04-24T06:59:12.531Z,3.13
2023-04-24T07:01:41.061Z,2.67
2023-04-24T07:04:09.634Z,2.35
2023-04-24T07:06:40.433Z,2.47
2023-04-24T07:09:16.880Z,2.72
2023-04-24T07:11:45.890Z,3.03
2023-04-24T07:14:16.572Z,2.15
2023-04-24T07:16:54.286Z,2.55
2023-04-24T07:19:22.507Z,3.08
2023-04-24T07:22:02.108Z,2.30
2023-04-24T07:24:39.459Z,2.95
2023-04-24T07:27:10.028Z,2.30
2023-04-24T07:29:39.240Z,3.20
2023-04-24T07:32:23.195Z,3.08
2023-04-24T07:34:55.396Z,2.85
2023-04-24T07:37:24.311Z,2.78
2023-04-24T07:40:00.627Z,3.03
2023-04-24T07:42:47.388Z,2.72
2023-04-24T07:45:16.395Z,2.80
2023-04-24T07:47:49.453Z,3.13
2023-04-24T07:50:19.838Z,5.80
2023-04-24T07:53:03.687Z,2.97
2023-04-24T07:56:16.921Z,2.90
2023-04-24T07:58:56.001Z,2.83
2023-04-24T08:01:26.520Z,4.55
2023-04-24T08:10:39.933Z,3.35
2023-04-24T08:16:37.726Z,3.63
2023-04-24T08:19:11.001Z,4.22
2023-04-24T08:22:08.864Z,3.55
2023-04-24T08:24:39.925Z,2.75
2023-04-24T08:27:10.350Z,4.00
2023-04-24T08:29:54.478Z,4.45
2023-04-24T08:35:12.330Z,3.20
2023-04-24T08:37:54.531Z,3.55
2023-04-24T08:40:31.651Z,3.20
2023-04-24T08:43:03.657Z,5.05
2023-04-24T08:46:07.849Z,3.17
2023-04-24T08:48:46.183Z,4.07
2023-04-24T08:51:17.600Z,3.50
2023-04-24T08:53:51.482Z,3.67
2023-04-24T08:56:23.368Z,4.40
2023-04-24T08:58:54.876Z,3.20
2023-04-24T09:01:42.288Z,4.22
2023-04-24T09:04:15.877Z,3.35
2023-04-24T09:06:47.503Z,3.97
2023-04-24T09:09:20.586Z,3.78
2023-04-24T09:12:04.939Z,3.83
2023-04-24T09:14:48.383Z,2.50
2023-04-24T09:17:30.014Z,3.05
2023-04-24T09:20:06.196Z,3.38
2023-04-24T09:22:49.800Z,2.00
2023-04-24T09:25:38.183Z,2.20
2023-04-24T09:28:17.547Z,2.50
2023-04-24T09:31:22.140Z,1.40
2023-04-24T09:34:32.564Z,1.60
2023-04-24T09:37:18.328Z,2.83
2023-04-24T09:39:46.953Z,1.58
2023-04-24T09:43:51.916Z,1.90
2023-04-24T09:49:18.869Z,2.65
2023-04-24T09:55:32.345Z,3.72
2023-04-24T09:58:34.326Z,3.15
2023-04-24T10:12:23.690Z,3.92
2023-04-24T10:21:45.468Z,2.92
2023-04-24T10:24:21.066Z,3.50
2023-04-24T10:27:19.666Z,2.60
2023-04-24T10:30:18.354Z,2.83
2023-04-24T10:33:50.369Z,3.10
2023-04-24T10:37:11.130Z,2.15
2023-04-24T10:40:03.078Z,2.78
2023-04-24T10:46:25.813Z,3.35
2023-04-24T10:49:18.773Z,3.53
2023-04-24T10:52:30.545Z,2.60
2023-04-24T10:55:28.779Z,2.97
2023-04-24T10:59:00.353Z,4.07
2023-04-24T11:12:29.395Z,2.90
2023-04-24T11:16:04.686Z,4.22
2023-04-24T11:19:41.463Z,5.40
2023-04-24T11:22:41.800Z,2.80
2023-04-24T11:25:19.069Z,2.22
2023-04-24T11:28:42.766Z,3.97
2023-04-24T11:31:43.837Z,2.50
2023-04-24T11:34:49.530Z,2.92
2023-04-24T11:38:07.896Z,2.75
2023-04-24T11:41:43.058Z,3.10
2023-04-24T11:47:52.715Z,2.80
2023-04-24T11:53:41.984Z,2.95
2023-04-24T11:56:57.619Z,2.40
2023-04-24T11:59:48.004Z,2.85
2023-04-24T12:02:34.341Z,3.72
2023-04-24T12:19:24.237Z,2.60
2023-04-24T12:22:13.021Z,3.13
2023-04-24T12:28:32.301Z,2.60
2023-04-24T12:31:31.586Z,2.03
2023-04-24T12:38:55.210Z,2.28
2023-04-24T12:41:40.888Z,2.22
2023-04-24T12:45:15.986Z,2.10
2023-04-24T12:48:22.135Z,2.35
2023-04-24T12:51:17.752Z,2.85
2023-04-24T12:55:42.633Z,2.50
2023-04-24T12:57:49.437Z,2.30
2023-04-24T13:01:06.667Z,2.50
2023-04-24T13:08:09.194Z,2.72
2023-04-24T13:11:01.714Z,3.35
2023-04-24T13:14:02.126Z,3.92
2023-04-24T13:20:11.015Z,2.33
2023-04-24T13:22:46.437Z,2.85
2023-04-24T13:25:46.279Z,2.40
2023-04-24T13:29:02.083Z,2.75
2023-04-24T13:33:14.428Z,2.45
2023-04-24T13:35:27.265Z,2.97
2023-04-24T13:38:17.945Z,2.13
2023-04-24T13:41:14.796Z,2.75
2023-04-24T13:44:11.770Z,2.65
2023-04-24T13:46:46.202Z,2.15
2023-04-24T13:49:34.159Z,2.88
2023-04-24T13:52:23.605Z,3.08
2023-04-24T13:58:25.312Z,2.92
2023-04-24T14:01:03.268Z,2.03
2023-04-24T14:04:05.871Z,3.38
2023-04-24T14:06:54.540Z,2.50
2023-04-24T14:09:49.350Z,2.50
2023-04-24T14:12:36.228Z,2.75
2023-04-24T14:16:26.671Z,3.05
2023-04-24T14:18:58.256Z,5.72
2023-04-24T14:21:50.030Z,3.83
2023-04-24T14:24:18.266Z,5.57
2023-04-24T14:27:36.885Z,3.65
2023-04-24T14:30:20.384Z,5.57
2023-04-24T14:55:47.049Z,3.08
2023-04-24T15:01:16.427Z,3.38
2023-04-24T15:04:46.943Z,3.25
2023-04-24T15:07:46.916Z,5.28
2023-04-24T15:10:37.053Z,4.25
2023-04-24T15:13:51.535Z,4.20
2023-04-24T15:16:59.181Z,2.75
2023-04-24T15:20:13.963Z,2.95
2023-04-24T15:27:34.667Z,3.70
2023-04-24T15:37:56.937Z,3.20
2023-04-24T15:40:35.311Z,3.90
2023-04-24T15:43:08.983Z,3.17
2023-04-24T15:45:49.485Z,3.28
2023-04-24T15:48:21.308Z,3.03
2023-04-24T15:51:17.880Z,3.33
2023-04-24T15:54:05.835Z,4.30
2023-04-24T15:56:38.300Z,3.75
2023-04-24T15:59:18.471Z,3.00
2023-04-24T16:03:58.280Z,6.70
2023-04-24T16:06:02.567Z,3.70
2023-04-24T16:09:31.669Z,3.53
2023-04-24T16:19:00.880Z,4.63
2023-04-24T16:49:05.235Z,3.53
2023-04-24T16:54:45.991Z,5.15
2023-04-24T16:57:19.993Z,3.20
2023-04-24T17:00:01.748Z,4.57
2023-04-24T17:02:35.270Z,4.28
2023-04-24T17:06:21.280Z,3.60
2023-04-24T17:09:49.417Z,6.57
2023-04-24T17:12:52.380Z,4.20
2023-04-24T17:16:12.450Z,3.30
2023-04-24T17:18:55.268Z,5.40
2023-04-24T17:21:30.151Z,3.28
2023-04-24T17:24:12.541Z,3.63
2023-04-24T17:30:10.553Z,4.32
2023-04-24T17:32:56.622Z,5.40
2023-04-24T17:35:50.486Z,3.58
2023-04-24T17:39:05.649Z,4.35
2023-04-24T17:45:58.421Z,3.20
2023-04-24T17:49:23.458Z,3.95
2023-04-24T17:51:55.300Z,3.53
2023-04-24T17:54:38.772Z,4.20
2023-04-24T17:57:10.382Z,3.43
2023-04-24T17:59:45.317Z,3.53
2023-04-24T18:02:27.228Z,4.35
2023-04-24T18:04:59.168Z,3.67
2023-04-24T18:08:08.501Z,4.88
2023-04-24T18:10:45.120Z,4.38
2023-04-24T18:13:24.625Z,4.90
2023-04-24T18:16:03.083Z,4.32
2023-04-24T18:18:40.722Z,4.85
2023-04-24T18:21:25.948Z,4.32
2023-04-24T18:23:57.315Z,5.25
2023-04-24T18:26:34.343Z,4.63
2023-04-24T18:29:08.347Z,4.03
2023-04-24T18:31:48.151Z,4.47
2023-04-24T18:34:16.757Z,6.03
2023-04-24T18:36:47.342Z,4.55
2023-04-24T18:39:25.258Z,5.13
2023-04-24T18:41:54.973Z,4.32
2023-04-24T18:44:41.009Z,5.07
2023-04-24T18:47:20.559Z,3.95
2023-04-24T18:49:49.170Z,5.60
2023-04-24T18:52:27.152Z,4.95
2023-04-24T18:55:17.554Z,5.15
2023-04-24T18:57:46.546Z,5.07
2023-04-24T19:00:23.066Z,5.43
2023-04-24T19:03:11.607Z,4.63
2023-04-24T19:05:40.594Z,5.13
2023-04-24T19:08:17.604Z,4.20
2023-04-24T19:10:48.532Z,4.47
2023-04-24T19:13:20.299Z,5.63
2023-04-24T19:15:48.803Z,5.15
2023-04-24T19:18:19.655Z,5.47
2023-04-24T19:20:51.548Z,4.80
2023-04-24T19:23:21.342Z,5.40
2023-04-24T19:25:49.624Z,6.43
2023-04-24T19:28:20.246Z,4.43
2023-04-24T19:30:52.931Z,5.47
2023-04-24T19:33:26.568Z,4.88
2023-04-24T19:36:10.509Z,5.47
2023-04-24T19:38:53.605Z,5.07
2023-04-24T19:41:21.563Z,6.03
2023-04-24T19:43:50.676Z,6.63
2023-04-24T19:46:21.153Z,6.15
2023-04-24T19:48:50.573Z,4.93
2023-04-24T19:51:32.221Z,4.95
2023-04-24T19:54:08.109Z,5.30
2023-04-24T19:56:39.199Z,5.78
2023-04-24T19:59:08.456Z,4.68
2023-04-24T20:01:39.780Z,5.68
2023-04-24T20:04:12.062Z,5.65
2023-04-24T20:07:03.180Z,4.25
2023-04-24T20:09:33.063Z,4.20
2023-04-24T20:12:04.121Z,3.78
2023-04-24T20:14:33.025Z,5.53
2023-04-24T20:17:06.904Z,4.97
2023-04-24T20:19:43.158Z,4.45
2023-04-24T20:22:13.408Z,5.45
2023-04-24T20:24:46.212Z,4.05
2023-04-24T20:27:29.949Z,5.10
2023-04-24T20:29:59.691Z,6.20
2023-04-24T20:32:28.618Z,4.72
2023-04-24T20:34:57.874Z,4.50
2023-04-24T20:37:26.334Z,5.10
2023-04-24T20:39:57.780Z,3.95
2023-04-24T20:42:29.036Z,6.38
2023-04-24T20:44:57.778Z,4.47
2023-04-24T20:47:26.531Z,4.35
2023-04-24T20:49:54.903Z,4.68
2023-04-24T20:52:29.835Z,4.20
2023-04-24T20:55:03.871Z,7.07
2023-04-24T20:57:47.452Z,4.93
2023-04-24T21:00:16.680Z,4.35
2023-04-24T21:02:47.295Z,6.03
2023-04-24T21:05:17.348Z,4.20
2023-04-24T21:07:45.555Z,4.75
2023-04-24T21:10:26.985Z,4.90
2023-04-24T21:13:04.264Z,4.43
2023-04-24T21:15:32.525Z,4.97
2023-04-24T21:18:00.958Z,4.68
2023-04-24T21:20:29.289Z,4.68
2023-04-24T21:22:57.727Z,4.53
2023-04-24T21:25:27.570Z,4.63
2023-04-24T21:27:56.523Z,5.25
2023-04-24T21:30:25.064Z,5.03
2023-04-24T21:32:57.317Z,5.22
2023-04-24T21:35:25.582Z,5.40
2023-04-24T21:38:08.437Z,6.10
2023-04-24T21:40:48.617Z,6.45
2023-04-24T21:43:49.859Z,5.25
2023-04-24T21:46:30.335Z,5.00
2023-04-24T21:49:07.897Z,4.68
2023-04-24T21:52:03.565Z,5.60
2023-04-24T21:54:38.841Z,5.18
2023-04-24T21:57:09.127Z,5.00
2023-04-24T21:59:37.564Z,6.05
2023-04-24T22:02:06.351Z,4.43
2023-04-24T22:04:35.047Z,4.18
2023-04-24T22:07:03.424Z,5.28
2023-04-24T22:09:32.057Z,5.05
2023-04-24T22:12:00.583Z,4.20
2023-04-24T22:14:30.357Z,4.30
2023-04-24T22:16:58.628Z,4.90
2023-04-24T22:19:28.357Z,5.45
2023-04-24T22:21:57.565Z,5.40
2023-04-24T22:24:51.131Z,5.15
2023-04-24T22:27:19.395Z,3.97
2023-04-24T22:29:49.029Z,4.40
2023-04-24T22:32:17.328Z,5.65
2023-04-24T22:34:46.111Z,5.43
2023-04-24T22:37:14.877Z,4.63
2023-04-24T22:39:43.205Z,6.07
2023-04-24T22:42:11.662Z,5.22
2023-04-24T22:44:40.076Z,4.18
2023-04-24T22:47:09.934Z,4.95
2023-04-24T22:49:41.388Z,4.53
2023-04-24T22:52:10.340Z,5.40
2023-04-24T22:54:38.569Z,4.47
2023-04-24T22:57:06.847Z,5.95
2023-04-24T22:59:35.028Z,4.70
2023-04-24T23:02:04.407Z,4.53
2023-04-24T23:04:34.232Z,4.00
2023-04-24T23:07:02.639Z,4.55
2023-04-24T23:09:30.919Z,4.72
2023-04-24T23:11:59.629Z,4.97
2023-04-24T23:14:28.487Z,4.85
2023-04-24T23:16:56.897Z,4.97
2023-04-24T23:19:25.186Z,4.57
2023-04-24T23:21:54.663Z,5.90
2023-04-24T23:24:22.994Z,5.50
2023-04-24T23:26:51.308Z,4.57
2023-04-24T23:29:23.149Z,4.25
2023-04-24T23:31:51.540Z,4.35
2023-04-24T23:34:23.296Z,5.35
2023-04-24T23:36:52.601Z,4.70
2023-04-24T23:39:22.594Z,3.83
2023-04-24T23:41:53.599Z,4.97
2023-04-24T23:44:21.902Z,4.82
2023-04-24T23:46:50.131Z,4.72
2023-04-24T23:49:18.178Z,5.10
2023-04-24T23:51:46.284Z,6.25
2023-04-24T23:54:14.352Z,4.80
2023-04-24T23:56:44.151Z,4.35
2023-04-24T23:59:12.259Z,4.65
